Time;durP1;ratioP1;P1;durP2;ratioP2;P2;SDS_P1;SDS_P2;PMS_P1;PMS_P2;Temp;Humidity;BMP_temperature;BMP_pressure;BME280_temperature;BME280_humidity;BME280_pressure;Samples;Min_cycle;Max_cycle;Signal;HPM_P1;HPM_P2
2023/06/12 00:01:04;;;;;;;3.63;2.63;;;18.60;37.10;;;;;;5060745;28;20073;-74
2023/06/12 00:03:30;;;;;;;6.45;2.70;;;18.60;49.40;;;;;;5054783;28;20097;-76
2023/06/12 00:05:58;;;;;;;2.83;2.30;;;18.60;51.10;;;;;;5038132;28;20429;-76
2023/06/12 00:08:35;;;;;;;4.32;2.88;;;18.50;37.10;;;;;;5047610;28;20382;-73
2023/06/12 00:11:01;;;;;;;13.70;3.75;;;18.50;67.50;;;;;;5043584;28;20123;-74
2023/06/12 00:13:27;;;;;;;3.72;2.60;;;18.40;53.90;;;;;;5058118;28;20556;-75
2023/06/12 00:15:53;;;;;;;6.38;2.90;;;18.40;81.60;;;;;;5083672;28;20119;-75
2023/06/12 00:18:19;;;;;;;3.47;2.83;;;18.30;79.10;;;;;;5066877;28;20041;-73
2023/06/12 00:20:44;;;;;;;4.05;2.78;;;18.30;91.40;;;;;;5038069;28;20116;-75
2023/06/12 00:23:10;;;;;;;5.88;2.97;;;18.20;99.90;;;;;;5073160;28;20044;-74
2023/06/12 00:25:36;;;;;;;4.28;2.65;;;18.10;99.90;;;;;;5041407;28;20040;-75
2023/06/12 00:28:03;;;;;;;3.42;2.40;;;18.10;99.90;;;;;;5062174;28;20036;-72
2023/06/12 00:30:28;;;;;;;4.90;2.72;;;18.00;99.90;;;;;;5064849;28;20071;-72
2023/06/12 00:32:54;;;;;;;2.90;2.60;;;18.00;99.90;;;;;;5061346;28;20040;-76
2023/06/12 00:35:20;;;;;;;5.10;2.53;;;17.90;99.90;;;;;;5064091;28;20050;-72
2023/06/12 00:37:50;;;;;;;5.47;2.90;;;17.90;99.90;;;;;;5041266;28;20123;-75
2023/06/12 00:40:16;;;;;;;6.85;2.97;;;17.90;99.90;;;;;;5056326;28;20132;-74
2023/06/12 00:42:45;;;;;;;5.60;3.10;;;17.80;99.90;;;;;;5050291;28;20032;-74
2023/06/12 00:45:15;;;;;;;4.25;3.00;;;17.80;99.90;;;;;;5048289;28;20136;-75
2023/06/12 00:47:45;;;;;;;2.97;2.60;;;17.70;99.90;;;;;;5055228;28;20052;-75
2023/06/12 00:50:11;;;;;;;5.45;2.90;;;17.70;99.90;;;;;;5068955;28;20493;-76
2023/06/12 00:52:44;;;;;;;3.60;2.63;;;17.60;99.90;;;;;;5049045;28;20087;-73
2023/06/12 00:55:11;;;;;;;4.03;2.67;;;17.60;99.90;;;;;;5086831;28;20048;-75
2023/06/12 00:57:38;;;;;;;4.18;3.00;;;17.60;99.90;;;;;;5054821;28;20036;-76
2023/06/12 01:00:07;;;;;;;4.57;2.85;;;17.50;99.90;;;;;;5032490;28;20428;-74
2023/06/12 01:02:39;;;;;;;3.30;2.75;;;17.50;99.90;;;;;;5073118;28;20488;-74
2023/06/12 01:05:32;;;;;;;6.25;2.72;;;17.50;99.90;;;;;;5037971;28;20036;-77
2023/06/12 01:08:37;;;;;;;5.05;2.92;;;17.50;99.90;;;;;;5033827;28;20404;-74
2023/06/12 01:11:09;;;;;;;4.38;2.80;;;17.40;99.90;;;;;;5036917;28;20045;-73
2023/06/12 01:13:35;;;;;;;3.15;2.30;;;17.40;99.90;;;;;;5064314;28;20476;-73
2023/06/12 01:16:02;;;;;;;3.42;2.70;;;17.30;99.90;;;;;;5060915;28;20164;-75
2023/06/12 01:18:29;;;;;;;5.57;3.38;;;17.30;99.90;;;;;;5028960;28;20133;-73
2023/06/12 01:20:57;;;;;;;6.15;2.92;;;17.30;99.90;;;;;;5033884;28;20049;-73
2023/06/12 01:23:59;;;;;;;3.28;2.50;;;17.20;99.90;;;;;;5034772;28;20383;-74
2023/06/12 01:26:36;;;;;;;4.00;2.58;;;17.20;99.90;;;;;;5049934;28;20036;-74
2023/06/12 01:29:39;;;;;;;4.68;2.80;;;17.20;99.90;;;;;;5099757;28;20066;-74
2023/06/12 01:32:14;;;;;;;5.57;2.75;;;17.10;99.90;;;;;;5056570;28;20032;-73
2023/06/12 01:34:59;;;;;;;4.32;3.05;;;17.10;99.90;;;;;;5068654;28;20099;-72
2023/06/12 01:37:36;;;;;;;;;;;17.10;99.90;;;;;;5042070;28;20037;-75
2023/06/12 01:40:05;;;;;;;3.88;3.10;;;17.00;99.90;;;;;;5066436;28;19920;-73
2023/06/12 01:42:32;;;;;;;5.55;2.83;;;17.00;99.90;;;;;;5034401;28;20043;-73
2023/06/12 01:44:57;;;;;;;5.07;3.10;;;17.00;99.90;;;;;;5050843;28;20649;-72
2023/06/12 01:47:24;;;;;;;4.55;2.88;;;17.00;99.90;;;;;;5048280;28;20063;-74
2023/06/12 01:49:50;;;;;;;8.20;3.58;;;17.00;99.90;;;;;;5068000;28;20045;-72
2023/06/12 01:52:15;;;;;;;3.75;2.80;;;16.90;99.90;;;;;;5046974;28;20048;-72
2023/06/12 01:54:41;;;;;;;6.70;3.00;;;16.80;99.90;;;;;;5053450;28;20660;-73
2023/06/12 01:57:08;;;;;;;4.55;3.05;;;16.80;99.90;;;;;;5063862;28;20119;-73
2023/06/12 01:59:34;;;;;;;7.03;3.05;;;16.70;99.90;;;;;;5063574;28;20385;-73
2023/06/12 02:02:01;;;;;;;3.47;2.70;;;16.70;99.90;;;;;;5062631;28;20486;-75
2023/06/12 02:04:28;;;;;;;4.30;2.83;;;16.70;99.90;;;;;;5063931;28;20647;-74
2023/06/12 02:06:54;;;;;;;4.45;2.70;;;16.70;99.90;;;;;;5049971;28;20049;-73
2023/06/12 02:09:20;;;;;;;6.10;2.97;;;16.70;99.90;;;;;;5037561;28;20055;-75
2023/06/12 02:11:46;;;;;;;4.45;2.67;;;16.70;99.90;;;;;;5053507;28;20041;-71
2023/06/12 02:14:11;;;;;;;4.70;3.03;;;16.60;99.90;;;;;;5084910;28;20037;-74
2023/06/12 02:16:37;;;;;;;3.20;2.28;;;16.60;99.90;;;;;;5027490;28;20044;-74
2023/06/12 02:19:03;;;;;;;5.00;2.75;;;16.60;99.90;;;;;;5040245;28;20523;-71
2023/06/12 02:21:28;;;;;;;7.00;2.88;;;16.50;99.90;;;;;;5040869;28;20048;-72
2023/06/12 02:23:54;;;;;;;4.72;3.05;;;16.50;99.90;;;;;;5060433;28;20121;-74
2023/06/12 02:26:20;;;;;;;7.00;3.40;;;16.50;99.90;;;;;;5047636;28;20083;-72
2023/06/12 02:29:04;;;;;;;5.65;3.00;;;16.50;99.90;;;;;;5059967;28;20041;-74
2023/06/12 02:31:30;;;;;;;4.30;3.20;;;16.50;99.90;;;;;;5061789;28;20040;-77
2023/06/12 02:33:57;;;;;;;3.92;2.95;;;16.40;99.90;;;;;;5055286;28;20033;-75
2023/06/12 02:36:23;;;;;;;6.38;3.15;;;16.40;99.90;;;;;;5015306;28;20049;-72
2023/06/12 02:38:48;;;;;;;4.50;3.13;;;16.30;99.90;;;;;;5066793;28;20102;-72
2023/06/12 02:41:14;;;;;;;4.15;3.10;;;16.30;99.90;;;;;;5037884;28;20663;-76
2023/06/12 02:43:40;;;;;;;3.05;2.45;;;16.30;99.90;;;;;;5049837;28;20044;-72
2023/06/12 02:46:05;;;;;;;4.03;3.00;;;16.30;99.90;;;;;;5053826;28;20049;-75
2023/06/12 02:48:31;;;;;;;4.80;3.20;;;16.30;99.90;;;;;;5049373;28;20119;-73
2023/06/12 02:50:57;;;;;;;5.63;3.35;;;16.20;99.90;;;;;;5043732;28;20363;-72
2023/06/12 02:53:22;;;;;;;3.45;2.88;;;16.10;99.90;;;;;;5056722;28;20072;-73
2023/06/12 02:55:49;;;;;;;5.55;3.22;;;16.10;99.90;;;;;;5056811;28;20059;-73
2023/06/12 02:58:15;;;;;;;4.40;3.25;;;16.10;99.90;;;;;;5052189;28;20052;-73
2023/06/12 03:00:41;;;;;;;7.65;3.00;;;16.10;99.90;;;;;;5045194;28;20037;-74
2023/06/12 03:03:07;;;;;;;5.40;3.33;;;16.10;99.90;;;;;;5043963;28;20040;-75
2023/06/12 03:05:34;;;;;;;5.65;3.10;;;16.10;99.90;;;;;;5036790;28;20409;-76
2023/06/12 03:08:02;;;;;;;6.63;3.33;;;16.00;99.90;;;;;;5036573;28;20048;-74
2023/06/12 03:10:28;;;;;;;6.35;3.33;;;16.00;99.90;;;;;;5054529;28;20051;-75
2023/06/12 03:12:54;;;;;;;5.50;3.50;;;16.00;99.90;;;;;;5044511;28;20036;-74
2023/06/12 03:15:20;;;;;;;6.57;3.17;;;16.00;99.90;;;;;;5047758;28;20085;-73
2023/06/12 03:17:45;;;;;;;4.75;3.28;;;16.00;99.90;;;;;;5024950;28;20501;-73
2023/06/12 03:20:14;;;;;;;5.70;3.38;;;16.00;99.90;;;;;;5054429;28;20484;-73
2023/06/12 03:22:41;;;;;;;5.35;4.05;;;16.00;99.90;;;;;;5063660;28;20135;-73
2023/06/12 03:25:07;;;;;;;4.18;3.13;;;15.90;99.90;;;;;;5048969;28;20600;-72
2023/06/12 03:27:33;;;;;;;9.23;3.95;;;15.90;99.90;;;;;;5049266;28;20036;-72
2023/06/12 03:29:58;;;;;;;5.65;3.63;;;15.90;99.90;;;;;;5033230;28;20040;-73
2023/06/12 03:32:25;;;;;;;7.60;3.35;;;15.90;99.90;;;;;;5083563;28;20041;-75
2023/06/12 03:34:51;;;;;;;5.72;3.78;;;15.90;99.90;;;;;;5101010;28;20040;-72
2023/06/12 03:37:18;;;;;;;5.47;3.40;;;15.90;99.90;;;;;;5045611;28;20044;-74
2023/06/12 03:39:44;;;;;;;6.90;3.70;;;15.90;99.90;;;;;;5056297;28;20370;-73
2023/06/12 03:42:10;;;;;;;5.93;3.33;;;15.90;99.90;;;;;;5037464;28;20143;-72
2023/06/12 03:44:36;;;;;;;4.20;3.33;;;15.90;99.90;;;;;;5039932;28;20141;-72
2023/06/12 03:47:02;;;;;;;8.02;4.22;;;15.90;99.90;;;;;;5052032;28;20540;-72
2023/06/12 03:49:28;;;;;;;5.57;3.22;;;15.90;99.90;;;;;;5069295;28;20041;-76
2023/06/12 03:51:54;;;;;;;7.28;3.45;;;15.90;99.90;;;;;;5080743;28;20123;-73
2023/06/12 03:54:20;;;;;;;3.95;3.55;;;15.90;99.90;;;;;;5050979;28;20048;-73
2023/06/12 03:56:45;;;;;;;6.38;3.78;;;15.90;99.90;;;;;;5050371;28;20508;-72
2023/06/12 03:59:11;;;;;;;6.25;3.53;;;16.00;99.90;;;;;;5051596;28;20036;-75
2023/06/12 04:01:38;;;;;;;3.97;3.58;;;16.00;99.90;;;;;;5038265;28;20048;-74
2023/06/12 04:04:05;;;;;;;7.43;4.00;;;15.90;99.90;;;;;;5082305;28;20076;-76
2023/06/12 04:06:32;;;;;;;5.30;4.07;;;16.00;99.90;;;;;;5049526;28;20497;-75
2023/06/12 04:09:00;;;;;;;5.85;3.70;;;16.00;99.90;;;;;;5046593;28;20055;-72
2023/06/12 04:11:26;;;;;;;10.27;4.57;;;16.00;99.90;;;;;;5066191;28;20040;-74
2023/06/12 04:13:52;;;;;;;5.82;3.78;;;16.00;99.90;;;;;;5072207;28;20043;-73
2023/06/12 04:16:18;;;;;;;8.43;3.60;;;16.00;99.90;;;;;;5058326;28;20117;-74
2023/06/12 04:18:45;;;;;;;5.30;3.90;;;16.00;99.90;;;;;;5044443;28;20051;-73
2023/06/12 04:21:12;;;;;;;5.97;4.30;;;16.00;99.90;;;;;;5055131;28;20047;-73
2023/06/12 04:23:41;;;;;;;7.20;4.00;;;16.00;99.90;;;;;;5026618;28;20712;-74
2023/06/12 04:26:06;;;;;;;4.35;3.70;;;16.00;99.90;;;;;;5032705;28;20374;-75
2023/06/12 04:28:36;;;;;;;7.60;4.03;;;16.00;99.90;;;;;;5055890;28;20046;-75
2023/06/12 04:31:02;;;;;;;4.97;3.83;;;16.10;99.90;;;;;;5065671;28;20044;-77
2023/06/12 04:33:35;;;;;;;5.05;4.25;;;16.10;99.90;;;;;;5055929;28;20044;-73
2023/06/12 04:36:02;;;;;;;5.75;3.97;;;16.20;99.90;;;;;;5080843;28;20567;-72
2023/06/12 04:38:31;;;;;;;6.10;4.22;;;16.10;99.90;;;;;;5032652;28;20045;-74
2023/06/12 04:41:01;;;;;;;7.07;3.92;;;16.30;99.90;;;;;;5048831;28;20106;-74
2023/06/12 04:43:26;;;;;;;6.13;4.25;;;16.20;99.90;;;;;;5058116;28;20463;-75
2023/06/12 04:45:52;;;;;;;8.73;4.65;;;16.30;99.90;;;;;;5027752;28;20131;-74
2023/06/12 04:48:19;;;;;;;6.75;4.15;;;16.40;99.90;;;;;;5078498;28;20076;-73
2023/06/12 04:50:49;;;;;;;5.85;4.07;;;16.40;99.90;;;;;;5085237;28;20040;-73
2023/06/12 04:53:17;;;;;;;7.68;4.22;;;16.40;99.90;;;;;;5054992;28;20047;-73
2023/06/12 04:55:50;;;;;;;8.52;4.45;;;16.50;99.90;;;;;;5087864;28;20060;-77
2023/06/12 04:58:18;;;;;;;6.90;4.28;;;16.50;99.90;;;;;;5057719;28;20393;-72
2023/06/12 05:00:47;;;;;;;6.45;3.45;;;16.60;99.90;;;;;;5051163;28;20039;-74
2023/06/12 05:03:16;;;;;;;5.57;3.97;;;16.60;99.90;;;;;;5061540;28;20109;-76
2023/06/12 05:05:45;;;;;;;6.68;4.30;;;16.60;99.90;;;;;;5035492;28;20647;-75
2023/06/12 05:08:12;;;;;;;7.00;4.22;;;16.70;99.90;;;;;;5058990;28;20055;-73
2023/06/12 05:10:37;;;;;;;6.07;4.30;;;16.80;99.90;;;;;;5038829;28;20131;-74
2023/06/12 05:13:03;;;;;;;6.32;4.07;;;16.90;99.90;;;;;;5035030;28;20123;-75
2023/06/12 05:15:29;;;;;;;7.32;4.40;;;16.90;99.90;;;;;;5041715;28;20048;-77
2023/06/12 05:17:55;;;;;;;5.35;4.10;;;17.00;99.90;;;;;;5041484;28;20069;-74
2023/06/12 05:20:21;;;;;;;6.63;4.15;;;17.00;99.90;;;;;;5029869;28;20103;-74
2023/06/12 05:22:46;;;;;;;6.20;4.10;;;17.10;99.90;;;;;;5038063;28;20033;-79
2023/06/12 05:25:13;;;;;;;6.88;4.30;;;17.10;99.90;;;;;;5065834;28;20048;-75
2023/06/12 05:27:39;;;;;;;6.18;4.35;;;17.10;99.90;;;;;;5065077;28;20037;-70
2023/06/12 05:30:06;;;;;;;4.93;4.43;;;17.20;99.90;;;;;;5044819;28;20094;-76
2023/06/12 05:32:32;;;;;;;7.40;4.05;;;17.30;99.90;;;;;;5030297;28;20076;-73
2023/06/12 05:34:58;;;;;;;5.10;3.80;;;17.40;99.90;;;;;;5052388;28;20072;-74
2023/06/12 05:37:24;;;;;;;6.25;4.50;;;17.40;99.90;;;;;;5073193;28;20644;-74
2023/06/12 05:39:50;;;;;;;6.03;4.10;;;17.50;99.90;;;;;;5046193;28;20036;-76
2023/06/12 05:42:15;;;;;;;7.30;4.38;;;17.60;99.90;;;;;;5039036;28;20040;-73
2023/06/12 05:44:42;;;;;;;6.55;4.38;;;17.60;99.90;;;;;;5057083;28;20032;-74
2023/06/12 05:47:08;;;;;;;5.85;4.38;;;17.60;99.90;;;;;;5049274;28;20084;-74
2023/06/12 05:49:35;;;;;;;4.63;3.92;;;17.70;99.90;;;;;;5052692;28;20374;-74
2023/06/12 05:52:02;;;;;;;7.05;4.03;;;17.70;99.90;;;;;;5068848;28;20045;-73
2023/06/12 05:54:28;;;;;;;6.00;3.95;;;17.90;99.90;;;;;;5044503;28;20036;-76
2023/06/12 05:56:54;;;;;;;5.50;4.13;;;17.80;99.90;;;;;;5056636;28;20036;-74
2023/06/12 05:59:20;;;;;;;8.50;4.20;;;17.80;99.90;;;;;;5086504;28;20045;-76
2023/06/12 06:01:46;;;;;;;7.00;4.28;;;17.90;99.90;;;;;;5056586;28;20098;-74
2023/06/12 06:04:12;;;;;;;6.25;4.50;;;18.00;99.90;;;;;;5036567;28;20052;-77
2023/06/12 06:06:38;;;;;;;7.05;4.47;;;18.00;99.90;;;;;;5057089;28;20037;-76
2023/06/12 06:09:06;;;;;;;8.88;4.50;;;18.00;99.90;;;;;;5043937;28;20560;-74
2023/06/12 06:11:32;;;;;;;5.82;4.47;;;18.20;99.90;;;;;;5040467;28;20473;-76
2023/06/12 06:13:58;;;;;;;5.20;4.15;;;18.30;99.90;;;;;;5072828;28;20159;-73
2023/06/12 06:16:24;;;;;;;7.30;4.18;;;18.30;99.90;;;;;;5059568;28;20044;-71
2023/06/12 06:18:50;;;;;;;6.68;4.43;;;18.30;99.90;;;;;;5075786;28;20442;-74
2023/06/12 06:21:16;;;;;;;7.13;4.50;;;18.50;99.90;;;;;;5054472;28;20032;-75
2023/06/12 06:23:42;;;;;;;5.35;4.43;;;18.60;99.90;;;;;;5047147;28;20041;-73
2023/06/12 06:26:11;;;;;;;7.50;4.70;;;18.70;99.90;;;;;;5067604;28;20040;-75
2023/06/12 06:28:38;;;;;;;5.72;4.50;;;18.70;99.90;;;;;;5067293;28;20040;-76
2023/06/12 06:31:09;;;;;;;6.70;4.35;;;19.00;99.90;;;;;;5064636;28;20071;-74
2023/06/12 06:33:35;;;;;;;7.65;4.78;;;19.10;99.90;;;;;;5045943;28;20044;-75
2023/06/12 06:36:01;;;;;;;6.50;4.40;;;19.20;99.90;;;;;;5054684;28;20037;-76
2023/06/12 06:38:27;;;;;;;7.50;4.63;;;19.30;99.90;;;;;;5069462;28;20044;-74
2023/06/12 06:40:53;;;;;;;8.10;4.53;;;19.60;99.90;;;;;;5071602;28;20049;-73
2023/06/12 06:43:19;;;;;;;4.97;4.20;;;19.80;99.90;;;;;;5064590;28;20087;-74
2023/06/12 06:45:44;;;;;;;8.45;4.20;;;19.90;99.90;;;;;;5071246;28;20041;-72
2023/06/12 06:48:13;;;;;;;6.38;4.63;;;20.20;99.90;;;;;;5053821;28;20074;-73
2023/06/12 06:50:42;;;;;;;6.05;4.18;;;20.30;99.90;;;;;;5054931;28;20044;-75
2023/06/12 06:53:07;;;;;;;7.18;4.00;;;20.60;99.90;;;;;;5067235;28;20115;-76
2023/06/12 06:55:33;;;;;;;8.10;4.07;;;20.80;99.90;;;;;;5035941;28;20747;-74
2023/06/12 06:57:59;;;;;;;8.13;4.47;;;21.00;99.90;;;;;;5071246;28;20642;-73
2023/06/12 07:00:28;;;;;;;6.30;4.55;;;21.20;99.90;;;;;;5069505;28;20048;-72
2023/06/12 07:02:54;;;;;;;6.03;4.35;;;21.20;99.90;;;;;;5063032;28;20163;-75
2023/06/12 07:05:23;;;;;;;7.53;4.97;;;21.30;99.90;;;;;;5048269;28;20539;-74
2023/06/12 07:07:50;;;;;;;8.55;4.70;;;21.40;99.90;;;;;;5046825;28;20473;-72
2023/06/12 07:10:16;;;;;;;7.85;4.90;;;21.30;99.90;;;;;;5061489;28;20076;-75
2023/06/12 07:12:42;;;;;;;6.63;4.35;;;21.60;99.90;;;;;;5065842;28;20133;-76
2023/06/12 07:15:08;;;;;;;5.50;4.20;;;21.90;99.90;;;;;;5061488;28;20051;-71
2023/06/12 07:17:34;;;;;;;8.75;4.38;;;22.00;99.90;;;;;;5055135;28;20085;-75
2023/06/12 07:20:00;;;;;;;6.70;4.53;;;21.90;99.90;;;;;;5051318;28;20128;-75
2023/06/12 07:22:28;;;;;;;5.90;4.43;;;22.20;99.90;;;;;;5066228;28;20048;-72
2023/06/12 07:24:53;;;;;;;6.28;4.75;;;21.90;99.90;;;;;;5037597;28;20063;-74
2023/06/12 07:27:19;;;;;;;6.78;4.45;;;22.00;99.90;;;;;;5053768;28;20119;-72
2023/06/12 07:29:45;;;;;;;5.63;3.97;;;22.00;99.90;;;;;;5056935;28;20060;-72
2023/06/12 07:32:11;;;;;;;5.85;4.70;;;22.10;99.90;;;;;;5045565;28;20065;-71
2023/06/12 07:34:36;;;;;;;5.72;4.65;;;21.90;99.90;;;;;;5034047;28;20044;-72
2023/06/12 07:37:03;;;;;;;6.85;5.10;;;22.10;99.90;;;;;;5077192;28;20511;-71
2023/06/12 07:39:29;;;;;;;7.75;4.40;;;22.10;99.90;;;;;;5069779;28;20083;-71
2023/06/12 07:41:55;;;;;;;6.15;4.78;;;22.20;99.90;;;;;;5041955;28;20073;-73
2023/06/12 07:44:21;;;;;;;8.50;4.57;;;22.30;99.90;;;;;;5046744;28;20473;-71
2023/06/12 07:46:47;;;;;;;5.70;4.43;;;22.60;99.90;;;;;;5044809;28;20063;-73
2023/06/12 07:49:14;;;;;;;4.82;4.32;;;22.70;99.90;;;;;;5047166;28;20040;-70
2023/06/12 07:51:40;;;;;;;7.53;4.47;;;22.70;99.90;;;;;;5051113;28;20041;-74
2023/06/12 07:54:05;;;;;;;6.13;4.57;;;22.70;99.90;;;;;;5058415;28;20110;-75
2023/06/12 07:56:32;;;;;;;6.07;4.70;;;22.80;99.90;;;;;;5036073;28;20046;-72
2023/06/12 07:59:10;;;;;;;5.55;4.28;;;22.70;99.90;;;;;;5036217;28;20037;-73
2023/06/12 08:01:36;;;;;;;7.80;4.88;;;22.70;99.90;;;;;;5065910;28;20044;-72
2023/06/12 08:04:06;;;;;;;5.22;4.70;;;22.70;99.90;;;;;;5063842;28;20049;-74
2023/06/12 08:06:34;;;;;;;5.25;4.50;;;22.80;99.90;;;;;;5044183;28;20033;-73
2023/06/12 08:09:00;;;;;;;5.40;4.90;;;23.00;99.90;;;;;;5029436;28;20047;-70
2023/06/12 08:11:26;;;;;;;5.45;4.75;;;22.90;99.90;;;;;;5042313;28;20036;-71
2023/06/12 08:13:52;;;;;;;6.93;4.65;;;22.90;99.90;;;;;;5063363;28;20591;-73
2023/06/12 08:16:18;;;;;;;7.10;4.60;;;22.90;99.90;;;;;;5033895;28;20048;-71
2023/06/12 08:18:45;;;;;;;6.05;4.47;;;23.00;99.90;;;;;;5056550;28;20041;-70
2023/06/12 08:21:10;;;;;;;5.22;4.72;;;23.00;99.90;;;;;;5040447;28;20043;-70
2023/06/12 08:23:36;;;;;;;7.72;4.65;;;23.40;99.90;;;;;;5057703;28;20107;-73
2023/06/12 08:26:04;;;;;;;5.97;4.50;;;23.50;99.90;;;;;;5035729;28;20139;-72
2023/06/12 08:28:33;;;;;;;4.75;4.35;;;23.60;99.90;;;;;;5062001;28;20394;-72
2023/06/12 08:30:59;;;;;;;6.88;5.28;;;23.80;99.90;;;;;;5055358;28;20480;-72
2023/06/12 08:33:25;;;;;;;5.15;4.57;;;24.00;99.90;;;;;;5048866;28;20040;-74
2023/06/12 08:35:50;;;;;;;6.65;4.50;;;24.00;99.90;;;;;;5045649;28;20048;-73
2023/06/12 08:38:16;;;;;;;5.32;4.78;;;24.10;99.90;;;;;;5039718;28;20041;-70
2023/06/12 08:40:43;;;;;;;6.93;5.05;;;23.70;99.90;;;;;;5040275;28;20060;-71
2023/06/12 08:43:08;;;;;;;6.40;4.88;;;23.80;99.90;;;;;;5039156;28;20409;-73
2023/06/12 08:45:38;;;;;;;6.93;4.93;;;24.00;99.90;;;;;;5057242;28;20048;-73
2023/06/12 08:48:06;;;;;;;5.53;4.60;;;24.20;99.90;;;;;;5050335;28;20087;-73
2023/06/12 08:50:33;;;;;;;6.25;4.65;;;24.40;99.90;;;;;;5048758;28;20504;-73
2023/06/12 08:53:00;;;;;;;6.65;4.93;;;24.50;99.90;;;;;;5053463;28;20055;-72
2023/06/12 08:55:27;;;;;;;7.45;4.95;;;24.30;99.90;;;;;;5065215;28;20484;-72
2023/06/12 08:57:54;;;;;;;6.78;5.50;;;24.70;99.90;;;;;;5065778;28;20044;-72
2023/06/12 09:00:21;;;;;;;5.72;4.43;;;24.60;99.90;;;;;;5068772;28;20098;-73
2023/06/12 09:02:56;;;;;;;5.97;5.30;;;24.80;99.90;;;;;;5030484;28;20055;-73
2023/06/12 09:05:26;;;;;;;9.32;5.43;;;24.70;99.90;;;;;;5081422;28;20471;-74
2023/06/12 09:07:53;;;;;;;6.13;5.18;;;24.60;99.90;;;;;;5063466;28;20036;-72
2023/06/12 09:10:19;;;;;;;6.43;5.28;;;24.90;99.90;;;;;;5031038;28;20095;-71
2023/06/12 09:12:45;;;;;;;5.63;4.75;;;24.90;99.90;;;;;;5047691;28;20517;-71
2023/06/12 09:15:20;;;;;;;5.38;4.88;;;25.00;99.90;;;;;;5030735;28;20124;-73
2023/06/12 09:17:51;;;;;;;7.25;4.75;;;25.80;99.90;;;;;;5059019;28;20116;-75
2023/06/12 09:20:24;;;;;;;6.50;4.70;;;25.90;99.90;;;;;;5067443;28;20560;-74
2023/06/12 09:22:51;;;;;;;5.43;4.78;;;26.50;99.90;;;;;;5054859;28;20059;-73
2023/06/12 09:25:20;;;;;;;6.72;4.95;;;26.30;95.70;;;;;;5050662;28;20554;-72
2023/06/12 09:27:47;;;;;;;8.50;5.38;;;26.20;84.70;;;;;;5034978;28;20157;-73
2023/06/12 09:30:13;;;;;;;5.97;4.80;;;26.50;26.10;;;;;;5049786;28;20921;-74
2023/06/12 09:32:43;;;;;;;6.18;4.97;;;26.60;19.60;;;;;;5052018;28;20037;-72
2023/06/12 09:35:10;;;;;;;5.47;4.43;;;26.80;1.00;;;;;;5046813;28;20450;-73
2023/06/12 09:37:38;;;;;;;6.13;5.05;;;26.70;1.00;;;;;;5033246;28;20041;-72
2023/06/12 09:40:12;;;;;;;6.40;4.80;;;26.60;1.00;;;;;;5048212;28;20048;-73
2023/06/12 09:42:38;;;;;;;7.57;4.68;;;27.30;1.00;;;;;;5051228;28;20040;-75
2023/06/12 09:45:16;;;;;;;7.00;4.75;;;27.50;1.00;;;;;;5067588;28;20059;-72
2023/06/12 09:47:47;;;;;;;5.13;4.65;;;27.50;1.00;;;;;;5059047;28;20045;-72
2023/06/12 09:50:14;;;;;;;6.43;5.05;;;27.70;1.00;;;;;;5050202;28;20440;-74
2023/06/12 09:52:41;;;;;;;6.30;5.03;;;27.50;1.00;;;;;;5087096;28;20044;-73
2023/06/12 09:55:09;;;;;;;5.30;4.80;;;27.90;1.00;;;;;;5053640;28;20079;-75
2023/06/12 09:57:37;;;;;;;5.93;4.57;;;28.00;1.00;;;;;;5032752;28;20492;-74
2023/06/12 10:00:07;;;;;;;5.35;4.60;;;28.00;99.90;;;;;;5059859;28;20040;-73
2023/06/12 10:02:35;;;;;;;6.68;5.22;;;27.80;99.90;;;;;;5044981;28;20040;-75
2023/06/12 10:05:06;;;;;;;5.63;5.10;;;28.00;99.90;;;;;;5055401;28;20115;-75
2023/06/12 10:07:38;;;;;;;6.22;4.78;;;28.40;99.90;;;;;;5049564;28;20527;-75
2023/06/12 10:10:07;;;;;;;5.63;4.68;;;28.70;99.90;;;;;;5048107;28;20043;-75
2023/06/12 10:12:33;;;;;;;8.30;5.40;;;28.70;99.90;;;;;;5044123;28;20040;-75
2023/06/12 10:15:03;;;;;;;8.00;5.10;;;28.80;99.90;;;;;;5051392;28;20041;-73
2023/06/12 10:17:29;;;;;;;15.52;4.97;;;29.20;99.90;;;;;;5051036;28;20379;-75
2023/06/12 10:19:57;;;;;;;5.80;5.20;;;29.00;99.90;;;;;;5052981;28;20090;-73
2023/06/12 10:22:22;;;;;;;5.65;5.05;;;28.80;99.90;;;;;;5064071;28;20051;-75
2023/06/12 10:24:49;;;;;;;6.95;4.88;;;28.50;99.90;;;;;;5034612;28;20037;-74
2023/06/12 10:27:15;;;;;;;8.77;5.25;;;28.90;99.90;;;;;;5063206;28;20056;-74
2023/06/12 10:29:42;;;;;;;5.50;5.00;;;29.40;99.90;;;;;;5042818;28;20041;-73
2023/06/12 10:32:10;;;;;;;7.72;5.38;;;28.90;99.90;;;;;;5052374;28;20075;-74
2023/06/12 10:34:40;;;;;;;7.22;5.13;;;28.50;99.90;;;;;;5059148;28;20451;-74
2023/06/12 10:37:25;;;;;;;5.40;4.90;;;29.20;99.90;;;;;;5066159;28;20349;-76
2023/06/12 10:40:10;;;;;;;5.82;4.90;;;29.90;99.90;;;;;;5049422;28;20511;-76
2023/06/12 10:42:52;;;;;;;5.28;4.75;;;29.20;99.90;;;;;;5069674;28;20133;-74
2023/06/12 10:45:29;;;;;;;5.10;4.70;;;29.40;99.90;;;;;;5056112;28;20045;-74
2023/06/12 10:50:44;;;;;;;5.72;5.18;;;30.10;99.90;;;;;;5060481;28;20504;-75
2023/06/12 10:53:30;;;;;;;5.65;5.05;;;30.30;99.90;;;;;;5064474;28;20668;-75
2023/06/12 10:56:07;;;;;;;6.07;5.22;;;30.30;99.90;;;;;;5099153;28;20044;-77
2023/06/12 10:58:40;;;;;;;5.57;4.97;;;30.80;99.90;;;;;;5062810;28;20149;-76
2023/06/12 11:01:13;;;;;;;5.65;5.15;;;31.10;99.90;;;;;;5040494;28;20048;-75
2023/06/12 11:03:42;;;;;;;6.15;5.00;;;30.70;99.90;;;;;;5051285;28;20687;-75
2023/06/12 11:06:16;;;;;;;6.10;5.50;;;29.70;99.90;;;;;;5054781;28;20056;-77
2023/06/12 11:08:46;;;;;;;5.60;5.10;;;30.10;99.90;;;;;;5049546;28;20095;-75
2023/06/12 11:11:13;;;;;;;6.53;4.88;;;30.80;99.90;;;;;;5034639;28;20447;-75
2023/06/12 11:13:43;;;;;;;6.20;5.18;;;30.20;99.90;;;;;;5029445;28;20055;-74
2023/06/12 11:16:21;;;;;;;5.93;4.90;;;29.90;99.90;;;;;;5033085;28;20132;-77
2023/06/12 11:19:02;;;;;;;7.97;4.47;;;30.60;99.90;;;;;;5052771;28;20048;-76
2023/06/12 11:21:28;;;;;;;5.63;5.15;;;31.20;99.90;;;;;;5051033;28;20041;-77
2023/06/12 11:23:55;;;;;;;6.57;5.18;;;31.30;99.90;;;;;;5038385;28;20048;-76
2023/06/12 11:26:21;;;;;;;5.57;5.00;;;31.30;51.00;;;;;;5076712;28;20045;-76
2023/06/12 11:28:48;;;;;;;5.97;5.38;;;30.90;72.90;;;;;;5062809;28;20107;-74
2023/06/12 11:31:14;;;;;;;5.63;5.10;;;30.80;92.60;;;;;;5061067;28;20041;-77
2023/06/12 11:33:40;;;;;;;6.03;5.45;;;31.20;67.40;;;;;;5043163;28;20048;-77
2023/06/12 11:36:06;;;;;;;8.43;5.32;;;30.40;99.90;;;;;;5067823;28;20049;-73
2023/06/12 11:38:32;;;;;;;6.90;5.40;;;30.90;99.90;;;;;;5052483;28;20051;-76
2023/06/12 11:40:58;;;;;;;8.75;5.00;;;30.80;99.90;;;;;;5068495;28;20105;-78
2023/06/12 11:43:26;;;;;;;5.20;4.70;;;31.30;92.90;;;;;;5065352;28;20064;-75
2023/06/12 11:45:54;;;;;;;5.75;5.00;;;31.30;45.70;;;;;;5049998;28;20119;-73
2023/06/12 11:48:21;;;;;;;6.05;5.45;;;31.10;67.90;;;;;;5082171;28;20090;-76
2023/06/12 11:50:52;;;;;;;6.72;5.18;;;31.40;37.70;;;;;;5053128;28;20485;-78
2023/06/12 11:53:22;;;;;;;5.60;5.10;;;31.30;1.00;;;;;;5037282;28;20036;-74
2023/06/12 11:55:56;;;;;;;5.45;4.95;;;31.60;3.50;;;;;;5049581;28;20400;-75
2023/06/12 11:58:40;;;;;;;6.15;5.40;;;31.60;5.70;;;;;;5056411;28;20037;-74
2023/06/12 12:01:22;;;;;;;5.30;4.80;;;32.20;1.00;;;;;;5084100;28;20037;-76
2023/06/12 12:03:48;;;;;;;5.70;5.05;;;31.30;9.10;;;;;;5065991;28;20051;-77
2023/06/12 12:06:17;;;;;;;6.45;5.60;;;30.70;42.70;;;;;;5031451;28;20041;-77
2023/06/12 12:08:44;;;;;;;5.60;4.90;;;31.10;28.90;;;;;;5068325;28;20056;-75
2023/06/12 12:11:17;;;;;;;8.02;5.70;;;31.60;1.00;;;;;;5055548;28;20049;-76
2023/06/12 12:13:59;;;;;;;6.47;5.00;;;31.00;1.00;;;;;;5057203;28;20036;-76
2023/06/12 12:16:28;;;;;;;6.30;5.70;;;30.90;1.00;;;;;;5094322;28;20041;-78
2023/06/12 12:18:55;;;;;;;6.05;5.10;;;30.90;1.00;;;;;;5049097;28;20048;-77
2023/06/12 12:21:23;;;;;;;5.57;5.07;;;31.10;1.00;;;;;;5063275;28;20424;-73
2023/06/12 12:23:48;;;;;;;6.72;5.30;;;31.30;1.00;;;;;;5089466;28;20036;-74
2023/06/12 12:26:15;;;;;;;5.75;5.28;;;31.30;1.00;;;;;;5058526;28;20424;-76
2023/06/12 12:28:42;;;;;;;5.68;5.15;;;31.00;1.00;;;;;;5048249;28;20036;-77
2023/06/12 12:31:08;;;;;;;5.75;5.28;;;31.40;1.00;;;;;;5066443;28;20048;-74
2023/06/12 12:33:34;;;;;;;5.10;4.60;;;32.00;1.00;;;;;;5049040;28;20043;-76
2023/06/12 12:36:01;;;;;;;5.70;5.13;;;31.70;1.00;;;;;;5044186;28;20134;-77
2023/06/12 12:38:26;;;;;;;6.10;5.53;;;31.30;1.00;;;;;;5034819;28;20041;-75
2023/06/12 12:40:53;;;;;;;6.60;5.70;;;31.20;1.00;;;;;;5052545;28;20057;-77
2023/06/12 12:43:18;;;;;;;6.72;5.80;;;30.60;1.00;;;;;;5068077;28;20149;-78
2023/06/12 12:45:44;;;;;;;6.78;6.07;;;30.80;1.00;;;;;;5066785;28;20155;-76
2023/06/12 12:48:10;;;;;;;8.00;6.43;;;30.10;1.00;;;;;;5034428;28;20056;-77
2023/06/12 12:50:36;;;;;;;6.47;5.80;;;30.00;1.00;;;;;;5071514;28;20044;-76
2023/06/12 12:53:02;;;;;;;5.85;5.25;;;30.50;1.00;;;;;;5083561;28;20041;-76
2023/06/12 12:55:32;;;;;;;6.65;6.05;;;31.00;1.00;;;;;;5066413;28;20064;-77